createdAt,value
2023-04-22T00:01:14.074Z,-23571.88
2023-04-22T00:03:16.895Z,-23572.03
2023-04-22T00:05:20.715Z,-23565.72
2023-04-22T00:07:23.675Z,-23567.94
2023-04-22T00:09:27.676Z,-23570.63
2023-04-22T00:11:30.325Z,-23569.50
2023-04-22T00:13:33.059Z,-23568.09
2023-04-22T00:15:35.665Z,-23567.47
2023-04-22T00:17:38.497Z,-23566.34
2023-04-22T00:19:42.903Z,-23566.34
2023-04-22T00:21:45.588Z,-23566.03
2023-04-22T00:23:48.259Z,-23563.81
2023-04-22T00:25:52.252Z,-23563.81
2023-04-22T00:27:54.929Z,-23561.44
2023-04-22T00:29:57.577Z,-23565.41
2023-04-22T00:32:00.239Z,-23563.03
2023-04-22T00:34:03.056Z,-23559.06
2023-04-22T00:36:06.145Z,-23557.19
2023-04-22T00:38:08.858Z,-23554.34
2023-04-22T00:40:11.721Z,-23552.59
2023-04-22T00:42:17.365Z,-23552.44
2023-04-22T00:44:20.415Z,-23551.81
2023-04-22T00:46:23.058Z,-23554.19
2023-04-22T00:48:28.647Z,-23553.38
2023-04-22T00:50:31.697Z,-23552.59
2023-04-22T00:52:34.689Z,-23552.13
2023-04-22T00:54:37.616Z,-23554.34
2023-04-22T00:56:40.714Z,-23551.34
2023-04-22T00:58:45.330Z,-23554.50
2023-04-22T01:00:48.101Z,-23552.13
2023-04-22T01:02:51.506Z,-23553.22
2023-04-22T01:04:55.167Z,-23551.81
2023-04-22T01:06:58.736Z,-23553.06
2023-04-22T01:09:01.587Z,-23554.97
2023-04-22T01:11:04.224Z,-23551.66
2023-04-22T01:13:06.988Z,-23553.22
2023-04-22T01:15:12.205Z,-23552.59
2023-04-22T01:17:16.436Z,-23551.34
2023-04-22T01:19:19.371Z,-23551.81
2023-04-22T01:21:22.699Z,-23550.22
2023-04-22T01:23:26.972Z,-23549.59
2023-04-22T01:25:29.973Z,-23546.09
2023-04-22T01:27:32.861Z,-23545.31
2023-04-22T01:29:37.957Z,-23544.84
2023-04-22T01:31:40.930Z,-23545.47
2023-04-22T01:33:44.319Z,-23543.75
2023-04-22T01:35:47.289Z,-23542.47
2023-04-22T01:37:50.090Z,-23543.88
2023-04-22T01:39:54.419Z,-23542.31
2023-04-22T01:41:58.716Z,-23542.16
2023-04-22T01:44:03.594Z,-23542.31
2023-04-22T01:46:06.983Z,-23542.16
2023-04-22T01:48:11.082Z,-23544.22
2023-04-22T01:50:13.863Z,-23539.78
2023-04-22T01:52:16.973Z,-23539.00
2023-04-22T01:54:19.651Z,-23540.41
2023-04-22T01:56:23.652Z,-23538.84
2023-04-22T01:58:29.508Z,-23542.00
2023-04-22T02:00:32.548Z,-23545.31
2023-04-22T02:02:35.653Z,-23544.22
2023-04-22T02:04:38.447Z,-23542.78
2023-04-22T02:06:41.093Z,-23541.03
2023-04-22T02:08:43.921Z,-23540.88
2023-04-22T02:10:46.679Z,-23541.19
2023-04-22T02:12:50.764Z,-23539.16
2023-04-22T02:14:53.442Z,-23543.25
2023-04-22T02:16:56.242Z,-23543.09
2023-04-22T02:18:59.678Z,-23540.09
2023-04-22T02:21:02.462Z,-23537.25
2023-04-22T02:23:05.588Z,-23535.81
2023-04-22T02:25:10.811Z,-23537.09
2023-04-22T02:27:13.526Z,-23539.78
2023-04-22T02:29:17.579Z,-23536.78
2023-04-22T02:31:20.428Z,-23535.97
2023-04-22T02:33:23.195Z,-23530.91
2023-04-22T02:35:25.866Z,-23530.91
2023-04-22T02:37:28.482Z,-23536.94
2023-04-22T02:39:31.224Z,-23531.84
2023-04-22T02:41:33.929Z,-23528.69
2023-04-22T02:43:36.624Z,-23530.59
2023-04-22T02:45:40.948Z,-23524.91
2023-04-22T02:47:43.752Z,-23524.25
2023-04-22T02:49:46.573Z,-23523.00
2023-04-22T02:51:49.222Z,-23525.84
2023-04-22T02:53:52.053Z,-23526.16
2023-04-22T02:55:55.765Z,-23527.59
2023-04-22T02:57:58.468Z,-23523.47
2023-04-22T03:00:01.147Z,-23525.38
2023-04-22T03:02:06.934Z,-23517.94
2023-04-22T03:04:09.969Z,-23516.81
2023-04-22T03:06:12.719Z,-23517.28
2023-04-22T03:08:15.644Z,-23521.88
2023-04-22T03:10:18.439Z,-23519.81
2023-04-22T03:12:21.119Z,-23511.75
2023-04-22T03:14:23.904Z,-23514.44
2023-04-22T03:16:26.612Z,-23514.44
2023-04-22T03:18:30.639Z,-23513.34
2023-04-22T03:20:33.317Z,-23510.97
2023-04-22T03:22:35.951Z,-23511.91
2023-04-22T03:24:39.093Z,-23509.06
2023-04-22T03:26:41.880Z,-23507.78
2023-04-22T03:28:44.533Z,-23508.91
2023-04-22T03:30:47.347Z,-23510.66
2023-04-22T03:32:50.118Z,-23511.13
2023-04-22T03:34:54.354Z,-23507.31
2023-04-22T03:36:57.104Z,-23507.78
2023-04-22T03:38:59.866Z,-23510.31
2023-04-22T03:41:02.498Z,-23507.94
2023-04-22T03:43:05.295Z,-23512.84
2023-04-22T03:45:08.624Z,-23511.91
2023-04-22T03:47:11.287Z,-23510.00
2023-04-22T03:49:14.389Z,-23508.59
2023-04-22T03:51:18.374Z,-23505.91
2023-04-22T03:53:21.090Z,-23502.88
2023-04-22T03:55:23.795Z,-23505.25
2023-04-22T03:57:26.560Z,-23501.47
2023-04-22T03:59:29.222Z,-23499.06
2023-04-22T04:01:31.938Z,-23496.88
2023-04-22T04:03:34.826Z,-23500.50
2023-04-22T04:05:37.915Z,-23496.72
2023-04-22T04:07:42.571Z,-23497.34
2023-04-22T04:09:45.279Z,-23496.53
2023-04-22T04:11:47.884Z,-23496.72
2023-04-22T04:13:50.606Z,-23495.13
2023-04-22T04:15:53.626Z,-23496.72
2023-04-22T04:17:56.791Z,-23493.84
2023-04-22T04:19:59.735Z,-23495.28
2023-04-22T04:22:02.454Z,-23492.91
2023-04-22T04:24:07.410Z,-23495.13
2023-04-22T04:26:10.082Z,-23494.16
2023-04-22T04:28:13.772Z,-23494.16
2023-04-22T04:30:16.541Z,-23492.59
2023-04-22T04:32:19.251Z,-23491.47
2023-04-22T04:34:26.678Z,-23491.31
2023-04-22T04:36:32.876Z,-23492.44
2023-04-22T04:38:35.523Z,-23490.03
2023-04-22T04:40:39.589Z,-23494.50
2023-04-22T04:42:42.325Z,-23489.72
2023-04-22T04:44:45.004Z,-23491.63
2023-04-22T04:46:47.665Z,-23491.47
2023-04-22T04:48:51.644Z,-23490.38
2023-04-22T04:50:54.771Z,-23496.72
2023-04-22T04:52:57.385Z,-23495.44
2023-04-22T04:55:00.064Z,-23496.72
2023-04-22T04:57:04.385Z,-23497.66
2023-04-22T04:59:07.059Z,-23498.44
2023-04-22T05:01:09.764Z,-23500.19
2023-04-22T05:03:12.656Z,-23503.03
2023-04-22T05:05:15.606Z,-23499.56
2023-04-22T05:07:18.286Z,-23501.13
2023-04-22T05:09:20.919Z,-23501.47
2023-04-22T05:11:23.627Z,-23501.47
2023-04-22T05:13:27.703Z,-23501.47
2023-04-22T05:15:30.474Z,-23502.09
2023-04-22T05:17:33.231Z,-23505.41
2023-04-22T05:19:35.930Z,-23506.69
2023-04-22T05:21:38.612Z,-23507.00
2023-04-22T05:23:41.241Z,-23508.59
2023-04-22T05:25:44.072Z,-23514.13
2023-04-22T05:27:46.709Z,-23516.66
2023-04-22T05:29:50.726Z,-23518.09
2023-04-22T05:31:53.441Z,-23513.03
2023-04-22T05:33:56.159Z,-23515.88
2023-04-22T05:35:58.933Z,-23515.72
2023-04-22T05:38:01.743Z,-23517.28
2023-04-22T05:40:04.689Z,-23515.88
2023-04-22T05:42:07.392Z,-23514.28
2023-04-22T05:44:10.920Z,-23516.66
2023-04-22T05:46:15.093Z,-23514.44
2023-04-22T05:48:17.811Z,-23520.63
2023-04-22T05:50:21.299Z,-23521.88
2023-04-22T05:52:25.981Z,-23515.06
2023-04-22T05:54:29.695Z,-23510.66
2023-04-22T05:56:32.714Z,-23511.13
2023-04-22T05:58:35.542Z,-23519.81
2023-04-22T06:00:38.247Z,-23523.94
2023-04-22T06:02:42.457Z,-23526.78
2023-04-22T06:04:45.393Z,-23524.72
2023-04-22T06:06:48.436Z,-23530.59
2023-04-22T06:08:51.121Z,-23533.75
2023-04-22T06:10:53.824Z,-23533.28
2023-04-22T06:12:56.530Z,-23535.19
2023-04-22T06:14:59.147Z,-23539.78
2023-04-22T06:17:01.844Z,-23540.72
2023-04-22T06:19:06.010Z,-23539.16
2023-04-22T06:21:08.628Z,-23544.53
2023-04-22T06:23:11.294Z,-23551.47
2023-04-22T06:25:13.941Z,-23558.44
2023-04-22T06:27:16.590Z,-23566.34
2023-04-22T06:29:19.216Z,-23568.88
2023-04-22T06:31:21.920Z,-23576.47
2023-04-22T06:33:24.647Z,-23571.56
2023-04-22T06:35:28.714Z,-23573.94
2023-04-22T06:37:31.418Z,-23570.78
2023-04-22T06:39:34.122Z,-23564.78
2023-04-22T06:41:36.812Z,-23561.94
2023-04-22T06:43:39.432Z,-23566.97
2023-04-22T06:45:42.887Z,-23565.72
2023-04-22T06:47:45.583Z,-23565.72
2023-04-22T06:49:48.273Z,-23562.25
2023-04-22T06:51:52.233Z,-23570.78
2023-04-22T06:53:54.891Z,-23564.28
2023-04-22T06:55:57.551Z,-23568.88
2023-04-22T06:58:00.196Z,-23571.56
2023-04-22T07:00:04.193Z,-23575.53
2023-04-22T07:02:07.042Z,-23573.31
2023-04-22T07:04:09.867Z,-23576.00
2023-04-22T07:06:12.935Z,-23581.84
2023-04-22T07:08:17.001Z,-23579.16
2023-04-22T07:10:19.829Z,-23578.38
2023-04-22T07:12:24.056Z,-23583.91
2023-04-22T07:14:27.334Z,-23585.31
2023-04-22T07:16:30.019Z,-23587.22
2023-04-22T07:18:32.684Z,-23587.22
2023-04-22T07:20:35.333Z,-23591.50
2023-04-22T07:22:37.936Z,-23592.13
2023-04-22T07:24:41.958Z,-23594.50
2023-04-22T07:26:45.579Z,-23597.34
2023-04-22T07:28:48.228Z,-23609.03
2023-04-22T07:30:50.946Z,-23621.03
2023-04-22T07:32:53.617Z,-23619.75
2023-04-22T07:34:56.436Z,-23639.34
2023-04-22T07:36:59.293Z,-23624.81
2023-04-22T07:39:02.043Z,-23613.44
2023-04-22T07:41:06.263Z,-23614.06
2023-04-22T07:43:08.868Z,-23619.44
2023-04-22T07:45:11.808Z,-23624.34
2023-04-22T07:47:14.526Z,-23619.44
2023-04-22T07:49:17.662Z,-23632.69
2023-04-22T07:51:20.339Z,-23630.66
2023-04-22T07:53:23.245Z,-23643.44
2023-04-22T07:55:26.076Z,-23630.81
2023-04-22T07:57:30.100Z,-23631.28
2023-04-22T07:59:32.760Z,-23644.06
2023-04-22T08:01:35.441Z,-23641.06
2023-04-22T08:03:38.234Z,-23630.50
2023-04-22T08:05:41.178Z,-23636.03
2023-04-22T08:07:43.918Z,-23640.59
2023-04-22T08:09:46.607Z,-23635.22
2023-04-22T08:11:49.397Z,-23627.19
2023-04-22T08:13:53.442Z,-23644.06
2023-04-22T08:15:56.184Z,-23633.34
2023-04-22T08:17:58.990Z,-23644.06
2023-04-22T08:20:01.702Z,-23626.41
2023-04-22T08:22:04.318Z,-23639.97
2023-04-22T08:24:07.534Z,-23639.66
2023-04-22T08:26:14.890Z,-23641.22
2023-04-22T08:28:17.612Z,-23636.19
2023-04-22T08:30:21.759Z,-23654.31
2023-04-22T08:32:26.429Z,-23639.97
2023-04-22T08:34:29.270Z,-23667.09
2023-04-22T08:36:32.266Z,-23681.44
2023-04-22T08:38:35.013Z,-23694.34
2023-04-22T08:40:41.472Z,-23708.06
2023-04-22T08:42:44.819Z,-23729.63
2023-04-22T08:44:47.982Z,-23750.06
2023-04-22T08:46:52.656Z,-23720.00
2023-04-22T08:48:55.739Z,-23737.94
2023-04-22T08:50:59.249Z,-23769.38
2023-04-22T08:53:02.041Z,-23777.88
2023-04-22T08:55:05.070Z,-23772.22
2023-04-22T08:57:09.477Z,-23797.81
2023-04-22T08:59:13.390Z,-23811.16
2023-04-22T09:01:17.913Z,-23818.84
2023-04-22T09:03:23.273Z,-23863.03
2023-04-22T09:05:28.409Z,-23910.59
2023-04-22T09:07:32.040Z,-23893.56
2023-04-22T09:09:35.318Z,-23899.19
2023-04-22T09:11:38.729Z,-23906.84
2023-04-22T09:13:41.512Z,-23917.94
2023-04-22T09:15:44.636Z,-23902.31
2023-04-22T09:17:47.418Z,-23873.22
2023-04-22T09:19:59.189Z,-23912.16
2023-04-22T09:22:02.518Z,-23818.22
2023-04-22T09:24:08.561Z,-23862.09
2023-04-22T09:26:12.148Z,-23879.31
2023-04-22T09:28:19.473Z,-23820.25
2023-04-22T09:30:25.970Z,-23810.84
2023-04-22T09:32:28.741Z,-23781.34
2023-04-22T09:34:31.938Z,-23817.91
2023-04-22T09:36:37.474Z,-23841.25
2023-04-22T09:38:40.505Z,-23867.72
2023-04-22T09:40:45.010Z,-23866.00
2023-04-22T09:42:51.450Z,-23904.50
2023-04-22T09:44:54.148Z,-23881.66
2023-04-22T09:46:56.880Z,-23858.81
2023-04-22T09:49:00.623Z,-23853.31
2023-04-22T09:51:03.326Z,-23873.22
2023-04-22T09:53:09.710Z,-23821.19
2023-04-22T09:55:12.520Z,-23876.66
2023-04-22T09:57:17.102Z,-23863.19
2023-04-22T09:59:24.211Z,-23923.88
2023-04-22T10:01:36.608Z,-23939.34
2023-04-22T10:03:39.552Z,-23907.63
2023-04-22T10:05:42.668Z,-23914.19
2023-04-22T10:07:46.252Z,-23935.91
2023-04-22T10:09:50.722Z,-23908.25
2023-04-22T10:11:56.683Z,-23904.19
2023-04-22T10:14:00.822Z,-23918.09
2023-04-22T10:16:04.169Z,-23909.50
2023-04-22T10:18:11.092Z,-23923.25
2023-04-22T10:20:18.232Z,-23929.66
2023-04-22T10:22:20.990Z,-23910.44
2023-04-22T10:24:27.241Z,-23927.94
2023-04-22T10:26:42.551Z,-23898.09
2023-04-22T10:28:45.456Z,-23910.75
2023-04-22T10:30:48.338Z,-23878.38
2023-04-22T10:32:51.080Z,-23869.31
2023-04-22T10:35:09.970Z,-23887.63
2023-04-22T10:37:14.197Z,-23851.59
2023-04-22T10:39:18.374Z,-23854.72
2023-04-22T10:41:24.454Z,-23884.47
2023-04-22T10:43:45.568Z,-23884.03
2023-04-22T10:45:48.295Z,-23840.00
2023-04-22T10:47:51.232Z,-23860.06
2023-04-22T10:50:10.033Z,-23851.59
2023-04-22T10:52:28.609Z,-23878.38
2023-04-22T10:55:03.061Z,-23907.63
2023-04-22T10:57:07.446Z,-23878.38
2023-04-22T10:59:17.988Z,-23851.44
2023-04-22T11:01:20.679Z,-23843.13
2023-04-22T11:03:28.947Z,-23847.84
2023-04-22T11:05:32.897Z,-23879.47
2023-04-22T11:07:36.452Z,-23861.78
2023-04-22T11:09:41.022Z,-23883.38
2023-04-22T11:11:44.001Z,-23900.75
2023-04-22T11:13:50.323Z,-23890.75
2023-04-22T11:15:56.468Z,-23886.38
2023-04-22T11:17:59.650Z,-23878.38
2023-04-22T11:20:04.659Z,-23887.16
2023-04-22T11:22:07.437Z,-23864.75
2023-04-22T11:24:11.116Z,-23884.78
2023-04-22T11:26:13.838Z,-23888.72
2023-04-22T11:28:16.485Z,-23876.81
2023-04-22T11:30:20.753Z,-23870.72
2023-04-22T11:32:24.938Z,-23884.16
2023-04-22T11:34:27.599Z,-23877.28
2023-04-22T11:36:31.503Z,-23896.53
2023-04-22T11:38:34.235Z,-23890.44
2023-04-22T11:40:40.660Z,-23893.25
2023-04-22T11:42:45.076Z,-23894.97
2023-04-22T11:44:47.825Z,-23898.25
2023-04-22T11:46:51.023Z,-23888.88
2023-04-22T11:48:55.028Z,-23870.72
2023-04-22T11:51:11.846Z,-23886.19
2023-04-22T11:53:16.368Z,-23888.88
2023-04-22T11:55:22.291Z,-23876.03
2023-04-22T11:57:26.621Z,-23864.28
2023-04-22T11:59:29.770Z,-23883.22
2023-04-22T12:01:32.869Z,-23883.84
2023-04-22T12:03:35.961Z,-23866.16
2023-04-22T12:05:41.820Z,-23870.88
2023-04-22T12:07:44.526Z,-23880.09
2023-04-22T12:09:47.706Z,-23861.63
2023-04-22T12:11:52.721Z,-23858.19
2023-04-22T12:13:55.599Z,-23860.06
2023-04-22T12:15:59.909Z,-23885.28
2023-04-22T12:18:03.017Z,-23889.66
2023-04-22T12:20:07.712Z,-23879.16
2023-04-22T12:22:11.688Z,-23881.03
2023-04-22T12:24:15.035Z,-23887.94
2023-04-22T12:26:19.026Z,-23885.41
2023-04-22T12:28:22.275Z,-23879.16
2023-04-22T12:30:25.389Z,-23881.66
2023-04-22T12:32:28.464Z,-23877.91
2023-04-22T12:34:31.074Z,-23873.84
2023-04-22T12:36:33.770Z,-23875.41
2023-04-22T12:38:38.389Z,-23882.91
2023-04-22T12:40:41.058Z,-23879.31
2023-04-22T12:42:43.729Z,-23884.66
2023-04-22T12:44:46.878Z,-23892.94
2023-04-22T12:46:49.608Z,-23898.41
2023-04-22T12:48:52.296Z,-23903.88
2023-04-22T12:50:55.153Z,-23891.69
2023-04-22T12:52:57.785Z,-23893.25
2023-04-22T12:55:01.781Z,-23895.75
2023-04-22T12:57:04.653Z,-23883.69
2023-04-22T12:59:07.288Z,-23877.59
2023-04-22T13:01:09.877Z,-23896.38
2023-04-22T13:03:12.764Z,-23888.41
2023-04-22T13:05:16.907Z,-23886.53
2023-04-22T13:07:20.259Z,-23897.78
2023-04-22T13:09:25.494Z,-23891.53
2023-04-22T13:11:29.601Z,-23884.66
2023-04-22T13:13:32.359Z,-23880.88
2023-04-22T13:15:35.426Z,-23885.56
2023-04-22T13:17:38.951Z,-23879.16
2023-04-22T13:19:41.816Z,-23887.00
2023-04-22T13:21:45.127Z,-23873.22
2023-04-22T13:23:48.075Z,-23871.19
2023-04-22T13:25:50.949Z,-23872.13
2023-04-22T13:27:54.910Z,-23865.69
2023-04-22T13:29:58.272Z,-23867.72
2023-04-22T13:32:01.075Z,-23887.44
2023-04-22T13:34:03.753Z,-23877.28
2023-04-22T13:36:06.649Z,-23879.16
2023-04-22T13:38:09.495Z,-23874.47
2023-04-22T13:40:12.668Z,-23862.25
2023-04-22T13:42:15.493Z,-23859.44
2023-04-22T13:44:19.604Z,-23851.28
2023-04-22T13:46:22.342Z,-23843.13
2023-04-22T13:48:25.198Z,-23858.97
2023-04-22T13:50:27.929Z,-23862.56
2023-04-22T13:52:30.608Z,-23870.72
2023-04-22T13:54:33.286Z,-23865.22
2023-04-22T13:56:36.029Z,-23866.78
2023-04-22T13:58:40.302Z,-23865.38
2023-04-22T14:00:44.371Z,-23860.53
2023-04-22T14:02:47.331Z,-23840.47
2023-04-22T14:04:50.036Z,-23850.66
2023-04-22T14:06:52.684Z,-23857.41
2023-04-22T14:08:55.424Z,-23868.34
2023-04-22T14:10:59.350Z,-23856.94
2023-04-22T14:13:02.071Z,-23856.00
2023-04-22T14:15:06.403Z,-23844.09
2023-04-22T14:17:10.703Z,-23836.41
2023-04-22T14:19:14.198Z,-23840.63
2023-04-22T14:21:16.945Z,-23839.06
2023-04-22T14:23:19.799Z,-23836.25
2023-04-22T14:25:22.551Z,-23825.91
2023-04-22T14:27:25.240Z,-23852.06
2023-04-22T14:29:29.679Z,-23845.50
2023-04-22T14:31:32.406Z,-23842.34
2023-04-22T14:33:36.620Z,-23835.94
2023-04-22T14:35:39.919Z,-23838.44
2023-04-22T14:37:44.912Z,-23856.63
2023-04-22T14:39:47.581Z,-23842.81
2023-04-22T14:41:50.536Z,-23839.06
2023-04-22T14:43:53.231Z,-23842.50
2023-04-22T14:45:55.944Z,-23829.19
2023-04-22T14:47:59.070Z,-23842.03
2023-04-22T14:50:03.150Z,-23834.06
2023-04-22T14:52:06.825Z,-23837.50
2023-04-22T14:54:09.498Z,-23825.28
2023-04-22T14:56:12.891Z,-23827.31
2023-04-22T14:58:15.595Z,-23828.25
2023-04-22T15:00:18.522Z,-23822.59
2023-04-22T15:02:21.346Z,-23832.66
2023-04-22T15:04:25.042Z,-23823.38
2023-04-22T15:06:29.005Z,-23825.75
2023-04-22T15:08:31.703Z,-23837.03
2023-04-22T15:10:34.475Z,-23834.38
2023-04-22T15:12:37.111Z,-23837.19
2023-04-22T15:14:40.278Z,-23837.81
2023-04-22T15:16:43.002Z,-23844.88
2023-04-22T15:18:45.654Z,-23833.75
2023-04-22T15:20:48.380Z,-23834.06
2023-04-22T15:22:52.376Z,-23833.44
2023-04-22T15:24:54.956Z,-23846.44
2023-04-22T15:26:58.028Z,-23829.50
2023-04-22T15:29:01.455Z,-23823.84
2023-04-22T15:31:04.275Z,-23840.63
2023-04-22T15:33:07.014Z,-23858.50
2023-04-22T15:35:09.968Z,-23855.69
2023-04-22T15:37:14.621Z,-23840.31
2023-04-22T15:39:18.927Z,-23840.00
2023-04-22T15:41:21.639Z,-23844.41
2023-04-22T15:43:24.302Z,-23850.97
2023-04-22T15:45:27.117Z,-23844.41
2023-04-22T15:47:30.089Z,-23829.50
2023-04-22T15:49:32.830Z,-23817.75
2023-04-22T15:51:35.775Z,-23817.13
2023-04-22T15:53:38.417Z,-23821.19
2023-04-22T15:55:42.473Z,-23817.91
2023-04-22T15:57:45.148Z,-23812.41
2023-04-22T15:59:51.455Z,-23818.06
2023-04-22T16:01:59.093Z,-23817.91
2023-04-22T16:04:02.186Z,-23807.38
2023-04-22T16:06:05.487Z,-23816.47
2023-04-22T16:08:08.222Z,-23806.28
2023-04-22T16:10:11.879Z,-23807.38
2023-04-22T16:12:16.258Z,-23813.03
2023-04-22T16:14:18.941Z,-23807.53
2023-04-22T16:16:23.004Z,-23808.03
2023-04-22T16:18:26.542Z,-23805.50
2023-04-22T16:20:29.229Z,-23801.75
2023-04-22T16:22:31.909Z,-23803.31
2023-04-22T16:24:34.538Z,-23798.28
2023-04-22T16:26:37.407Z,-23798.91
2023-04-22T16:28:41.428Z,-23796.25
2023-04-22T16:30:44.352Z,-23798.28
2023-04-22T16:32:47.060Z,-23791.53
2023-04-22T16:34:49.775Z,-23791.53
2023-04-22T16:36:52.426Z,-23791.53
2023-04-22T16:38:55.057Z,-23786.66
2023-04-22T16:40:58.164Z,-23788.56
2023-04-22T16:43:05.085Z,-23781.97
2023-04-22T16:45:09.822Z,-23786.97
2023-04-22T16:47:12.439Z,-23781.97
2023-04-22T16:49:15.046Z,-23782.28
2023-04-22T16:51:17.675Z,-23782.91
2023-04-22T16:53:20.315Z,-23781.00
2023-04-22T16:55:22.946Z,-23780.88
2023-04-22T16:57:25.550Z,-23776.31
2023-04-22T16:59:29.901Z,-23779.44
2023-04-22T17:01:34.288Z,-23781.34
2023-04-22T17:03:37.075Z,-23780.06
2023-04-22T17:05:40.183Z,-23778.97
2023-04-22T17:07:42.896Z,-23777.09
2023-04-22T17:09:45.565Z,-23777.41
2023-04-22T17:11:48.372Z,-23779.75
2023-04-22T17:13:51.209Z,-23779.28
2023-04-22T17:15:53.887Z,-23778.50
2023-04-22T17:17:58.009Z,-23774.88
2023-04-22T17:20:00.646Z,-23778.19
2023-04-22T17:22:03.869Z,-23777.25
2023-04-22T17:24:06.755Z,-23775.34
2023-04-22T17:26:09.853Z,-23776.78
2023-04-22T17:28:12.587Z,-23780.06
2023-04-22T17:30:15.728Z,-23774.09
2023-04-22T17:32:18.788Z,-23773.47
2023-04-22T17:34:23.023Z,-23771.59
2023-04-22T17:36:25.716Z,-23773.16
2023-04-22T17:38:28.344Z,-23773.78
2023-04-22T17:40:30.982Z,-23770.00
2023-04-22T17:42:44.720Z,-23772.22
2023-04-22T17:44:48.147Z,-23772.22
2023-04-22T17:46:50.852Z,-23770.66
2023-04-22T17:48:53.547Z,-23766.56
2023-04-22T17:50:57.529Z,-23770.97
2023-04-22T17:53:00.491Z,-23763.41
2023-04-22T17:55:03.296Z,-23766.56
2023-04-22T17:57:06.073Z,-23768.13
2023-04-22T17:59:11.241Z,-23764.03
2023-04-22T18:01:14.509Z,-23765.00
2023-04-22T18:03:20.068Z,-23763.88
2023-04-22T18:05:22.991Z,-23751.47
2023-04-22T18:07:27.038Z,-23750.84
2023-04-22T18:09:29.718Z,-23756.50
2023-04-22T18:11:32.449Z,-23756.34
2023-04-22T18:13:35.131Z,-23745.03
2023-04-22T18:15:37.837Z,-23746.44
2023-04-22T18:17:40.489Z,-23738.41
2023-04-22T18:19:44.607Z,-23734.19
2023-04-22T18:21:59.102Z,-23731.97
2023-04-22T18:24:04.359Z,-23724.09
2023-04-22T18:26:09.766Z,-23720.00
2023-04-22T18:28:12.409Z,-23711.34
2023-04-22T18:30:15.357Z,-23707.25
2023-04-22T18:32:18.478Z,-23709.63
2023-04-22T18:34:21.588Z,-23703.00
2023-04-22T18:36:24.251Z,-23693.41
2023-04-22T18:38:27.201Z,-23694.50
2023-04-22T18:40:31.281Z,-23692.94
2023-04-22T18:42:34.005Z,-23689.16
2023-04-22T18:44:37.155Z,-23691.69
2023-04-22T18:46:39.813Z,-23687.56
2023-04-22T18:48:43.282Z,-23682.69
2023-04-22T18:50:45.935Z,-23682.53
2023-04-22T18:52:48.807Z,-23677.03
2023-04-22T18:54:51.460Z,-23677.66
2023-04-22T18:56:55.737Z,-23674.97
2023-04-22T18:58:58.417Z,-23672.91
2023-04-22T19:01:01.721Z,-23669.47
2023-04-22T19:03:04.897Z,-23670.88
2023-04-22T19:05:08.121Z,-23669.78
2023-04-22T19:07:10.871Z,-23667.09
2023-04-22T19:09:13.518Z,-23663.63
2023-04-22T19:11:17.098Z,-23663.00
2023-04-22T19:13:29.329Z,-23655.91
2023-04-22T19:15:32.973Z,-23654.31
2023-04-22T19:17:35.880Z,-23656.53
2023-04-22T19:19:39.012Z,-23652.75
2023-04-22T19:21:42.054Z,-23654.94
2023-04-22T19:23:44.745Z,-23654.31
2023-04-22T19:25:48.010Z,-23651.78
2023-04-22T19:27:51.084Z,-23648.47
2023-04-22T19:29:55.142Z,-23647.22
2023-04-22T19:31:58.831Z,-23645.47
2023-04-22T19:34:02.658Z,-23651.31
2023-04-22T19:36:05.733Z,-23646.28
2023-04-22T19:38:08.600Z,-23645.31
2023-04-22T19:40:12.271Z,-23643.13
2023-04-22T19:42:15.060Z,-23642.81
2023-04-22T19:44:17.863Z,-23644.06
2023-04-22T19:46:21.985Z,-23643.59
2023-04-22T19:48:25.392Z,-23643.28
2023-04-22T19:50:28.501Z,-23644.06
2023-04-22T19:52:33.863Z,-23640.44
2023-04-22T19:54:37.670Z,-23635.53
2023-04-22T19:56:41.456Z,-23633.97
2023-04-22T19:58:44.704Z,-23636.19
2023-04-22T20:00:48.159Z,-23633.03
2023-04-22T20:02:54.402Z,-23632.56
2023-04-22T20:04:57.491Z,-23632.88
2023-04-22T20:07:02.843Z,-23633.19
2023-04-22T20:09:06.972Z,-23636.50
2023-04-22T20:11:10.098Z,-23633.34
2023-04-22T20:13:13.014Z,-23630.50
2023-04-22T20:15:16.244Z,-23632.22
2023-04-22T20:17:19.346Z,-23628.59
2023-04-22T20:19:24.018Z,-23626.06
2023-04-22T20:21:27.081Z,-23627.03
2023-04-22T20:23:29.861Z,-23628.75
2023-04-22T20:25:32.633Z,-23627.97
2023-04-22T20:27:36.942Z,-23627.81
2023-04-22T20:29:40.587Z,-23628.91
2023-04-22T20:31:43.780Z,-23627.03
2023-04-22T20:33:47.027Z,-23629.56
2023-04-22T20:35:51.438Z,-23624.19
2023-04-22T20:37:59.320Z,-23625.44
2023-04-22T20:40:04.788Z,-23626.72
2023-04-22T20:42:08.927Z,-23621.50
2023-04-22T20:44:11.714Z,-23622.13
2023-04-22T20:46:14.449Z,-23623.56
2023-04-22T20:48:17.482Z,-23627.34
2023-04-22T20:50:20.954Z,-23626.72
2023-04-22T20:52:25.072Z,-23619.59
2023-04-22T20:54:29.352Z,-23627.19
2023-04-22T20:56:46.099Z,-23623.41
2023-04-22T20:58:49.038Z,-23620.72
2023-04-22T21:00:51.713Z,-23631.28
2023-04-22T21:02:55.329Z,-23630.34
2023-04-22T21:04:58.728Z,-23616.91
2023-04-22T21:07:04.667Z,-23615.97
2023-04-22T21:09:10.530Z,-23617.53
2023-04-22T21:11:13.803Z,-23615.97
2023-04-22T21:13:17.476Z,-23624.50
2023-04-22T21:15:20.980Z,-23623.56
2023-04-22T21:17:26.148Z,-23628.28
2023-04-22T21:19:33.467Z,-23623.41
2023-04-22T21:21:38.369Z,-23616.91
2023-04-22T21:23:42.110Z,-23614.38
2023-04-22T21:25:47.821Z,-23611.88
2023-04-22T21:27:51.042Z,-23614.06
2023-04-22T21:29:54.464Z,-23614.56
2023-04-22T21:32:08.239Z,-23611.53
2023-04-22T21:34:12.347Z,-23609.50
2023-04-22T21:36:15.258Z,-23611.22
2023-04-22T21:38:19.610Z,-23610.13
2023-04-22T21:40:22.501Z,-23609.03
2023-04-22T21:42:26.571Z,-23617.22
2023-04-22T21:44:29.267Z,-23608.38
2023-04-22T21:46:31.960Z,-23607.91
2023-04-22T21:48:34.713Z,-23606.19
2023-04-22T21:50:37.870Z,-23605.72
2023-04-22T21:52:40.637Z,-23603.66
2023-04-22T21:54:43.675Z,-23605.84
2023-04-22T21:56:46.588Z,-23606.03
2023-04-22T21:58:50.576Z,-23603.19
2023-04-22T22:00:53.358Z,-23603.03
2023-04-22T22:02:56.146Z,-23603.34
2023-04-22T22:04:58.843Z,-23604.59
2023-04-22T22:07:01.764Z,-23605.22
2023-04-22T22:09:04.556Z,-23602.88
2023-04-22T22:11:12.459Z,-23603.03
2023-04-22T22:13:20.058Z,-23606.50
2023-04-22T22:15:24.376Z,-23604.13
2023-04-22T22:17:27.732Z,-23611.88
2023-04-22T22:19:31.824Z,-23609.66
2023-04-22T22:21:34.563Z,-23608.88
2023-04-22T22:23:37.233Z,-23609.19
2023-04-22T22:25:39.948Z,-23612.34
2023-04-22T22:27:45.526Z,-23615.03
2023-04-22T22:29:48.208Z,-23613.13
2023-04-22T22:31:52.223Z,-23608.69
2023-04-22T22:33:54.902Z,-23607.75
2023-04-22T22:35:57.793Z,-23608.22
2023-04-22T22:38:00.756Z,-23605.53
2023-04-22T22:40:03.629Z,-23606.19
2023-04-22T22:42:06.422Z,-23611.72
2023-04-22T22:44:09.072Z,-23615.81
2023-04-22T22:46:11.787Z,-23613.91
2023-04-22T22:48:15.983Z,-23612.19
2023-04-22T22:50:18.860Z,-23611.72
2023-04-22T22:52:21.545Z,-23611.88
2023-04-22T22:54:24.198Z,-23611.22
2023-04-22T22:56:26.880Z,-23609.03
2023-04-22T22:58:29.574Z,-23607.75
2023-04-22T23:00:32.325Z,-23604.91
2023-04-22T23:02:35.264Z,-23602.88
2023-04-22T23:04:39.579Z,-23599.84
2023-04-22T23:06:42.391Z,-23598.59
2023-04-22T23:08:45.074Z,-23599.53
2023-04-22T23:10:47.727Z,-23597.66
2023-04-22T23:12:50.398Z,-23596.06
2023-04-22T23:14:53.032Z,-23599.06
2023-04-22T23:16:55.833Z,-23597.97
2023-04-22T23:18:58.644Z,-23595.59
2023-04-22T23:21:04.517Z,-23596.53
2023-04-22T23:23:08.031Z,-23597.66
2023-04-22T23:25:12.544Z,-23596.69
2023-04-22T23:27:16.568Z,-23598.59
2023-04-22T23:29:19.906Z,-23599.22
2023-04-22T23:31:24.232Z,-23598.13